Menemsha, Massachusetts
Current Conditions -  °F | °C
As of 12:33 AM on Sunday 21 Dec 2014 (Local Time) from KMVY Reporting Station
Overcast Overcast  
Wind Chill: 30°   Ceiling: 900
Heat Index: 38°   Visibility: 9mi
Dew Point: 35°   Wind: 12mph
Humidity: 89%   Direction: 40°NE
Pressure: 30.23"   Gusts: NA
Location:  41.35°N, 70.76°W
Report Text: KMVY 210533Z AUTO 04010KT 9SM BKN009 OVC017 03/02 A3023 RMK AO2 T00330017
Loading
Personal Weather Stations






























Interactive Weather Map New forecast layout! Learn more

10-Day Weather Forecast

Advertisements
Track Severe Weather on mobile